Time;durP1;ratioP1;P1;durP2;ratioP2;P2;SDS_P1;SDS_P2;PMS_P1;PMS_P2;Temp;Humidity;BMP_temperature;BMP_pressure;BME280_temperature;BME280_humidity;BME280_pressure;Samples;Min_cycle;Max_cycle;Signal;HPM_P1;HPM_P2
2022/10/07 00:01:05;;;;;;;12.63;2.30;;;;;;;10.57;100.00;102766.91;5027866;28;20025;-62
2022/10/07 00:03:31;;;;;;;20.08;2.80;;;;;;;10.56;100.00;102767.78;5027705;28;20017;-60
2022/10/07 00:06:00;;;;;;;10.98;2.30;;;;;;;10.58;100.00;102768.69;5029234;28;20028;-61
2022/10/07 00:08:25;;;;;;;13.95;2.40;;;;;;;10.57;100.00;102761.63;5028682;28;20069;-61
2022/10/07 00:10:51;;;;;;;16.15;2.60;;;;;;;10.50;100.00;102762.53;5023926;28;20104;-60
2022/10/07 00:13:16;;;;;;;16.88;2.55;;;;;;;10.51;100.00;102766.06;5026414;28;20049;-60
2022/10/07 00:15:41;;;;;;;16.92;3.03;;;;;;;10.51;100.00;102760.78;5013447;28;20062;-61
2022/10/07 00:18:07;;;;;;;14.55;3.08;;;;;;;10.46;100.00;102759.03;5008330;28;20026;-61
2022/10/07 00:20:37;;;;;;;19.30;3.25;;;;;;;10.45;100.00;102757.28;5007929;28;20052;-61
2022/10/07 00:23:02;;;;;;;20.85;3.53;;;;;;;10.40;100.00;102753.75;5008858;28;20030;-59
2022/10/07 00:25:28;;;;;;;17.15;2.80;;;;;;;10.39;100.00;102752.00;5008295;28;20048;-60
2022/10/07 00:27:53;;;;;;;13.27;2.25;;;;;;;10.35;100.00;102751.13;5009408;28;20037;-63
2022/10/07 00:30:18;;;;;;;17.65;2.38;;;;;;;10.36;100.00;102747.59;5006887;28;20049;-61
2022/10/07 00:32:44;;;;;;;18.10;2.67;;;;;;;10.35;100.00;102751.13;5008917;28;20085;-60
2022/10/07 00:35:09;;;;;;;18.08;2.50;;;;;;;10.36;100.00;102742.31;5008427;28;20087;-60
2022/10/07 00:37:40;;;;;;;19.63;2.63;;;;;;;10.37;100.00;102743.22;5007786;28;20075;-58
2022/10/07 00:40:05;;;;;;;15.07;3.08;;;;;;;10.39;100.00;102741.47;5007622;28;20423;-61
2022/10/07 00:42:32;;;;;;;13.98;2.92;;;;;;;10.39;100.00;102737.94;5007754;28;20026;-62
2022/10/07 00:44:57;;;;;;;18.00;2.72;;;;;;;10.35;100.00;102745.84;5007812;28;20021;-60
2022/10/07 00:47:30;;;;;;;14.38;2.75;;;;;;;10.30;100.00;102739.69;5010455;28;20069;-60
2022/10/07 00:50:02;;;;;;;20.60;2.92;;;;;;;10.28;100.00;102738.84;5012496;28;20052;-62
2022/10/07 00:52:30;;;;;;;16.33;3.30;;;;;;;10.25;100.00;102741.47;4991120;28;20053;-61
2022/10/07 00:54:57;;;;;;;15.45;3.15;;;;;;;10.23;100.00;102736.22;5006939;28;20034;-60
2022/10/07 00:57:25;;;;;;;13.48;2.40;;;;;;;10.18;100.00;102729.22;4992376;28;20022;-60
2022/10/07 00:59:53;;;;;;;23.55;2.85;;;;;;;10.11;100.00;102731.84;5006831;28;20389;-60
2022/10/07 01:02:18;;;;;;;16.08;2.55;;;;;;;10.10;100.00;102724.84;4991967;28;20105;-61
2022/10/07 01:04:45;;;;;;;13.57;2.78;;;;;;;10.05;100.00;102720.47;5004332;28;20058;-60
2022/10/07 01:07:10;;;;;;;18.30;3.40;;;;;;;10.04;100.00;102719.56;4993648;28;20409;-61
2022/10/07 01:09:36;;;;;;;14.00;2.70;;;;;;;9.98;100.00;102717.81;5009208;28;20026;-62
2022/10/07 01:12:09;;;;;;;15.35;3.40;;;;;;;9.93;100.00;102716.09;5011681;28;20037;-59
2022/10/07 01:14:46;;;;;;;19.38;2.80;;;;;;;9.89;100.00;102715.19;5009352;28;20052;-62
2022/10/07 01:17:17;;;;;;;17.15;2.63;;;;;;;9.89;100.00;102704.66;5010666;28;20511;-62
2022/10/07 01:19:54;;;;;;;14.65;2.47;;;;;;;9.83;100.00;102707.28;5011453;28;20029;-60
2022/10/07 01:22:29;;;;;;;13.02;2.42;;;;;;;9.80;100.00;102699.41;5010618;28;20113;-61
2022/10/07 01:25:06;;;;;;;11.18;2.47;;;;;;;9.76;100.00;102697.66;5015889;28;20356;-61
2022/10/07 01:27:32;;;;;;;13.73;2.90;;;;;;;9.72;100.00;102696.75;5029647;28;20030;-61
2022/10/07 01:30:02;;;;;;;16.92;2.97;;;;;;;9.69;100.00;102691.53;5028342;28;20041;-61
2022/10/07 01:32:31;;;;;;;16.98;2.75;;;;;;;9.65;100.00;102692.38;5029706;28;20048;-61
2022/10/07 01:34:58;;;;;;;18.95;3.10;;;;;;;9.60;100.00;102689.75;5029979;28;20472;-60
2022/10/07 01:37:27;;;;;;;14.73;2.75;;;;;;;9.58;100.00;102681.84;5028694;28;20480;-59
2022/10/07 01:39:55;;;;;;;19.70;2.83;;;;;;;9.58;100.00;102676.56;5031299;28;20060;-61
2022/10/07 01:42:21;;;;;;;24.77;3.23;;;;;;;9.55;100.00;102668.72;5029061;28;20087;-60
2022/10/07 01:44:50;;;;;;;22.55;3.13;;;;;;;9.53;100.00;102662.56;5030561;28;20021;-61
2022/10/07 01:47:15;;;;;;;16.23;3.03;;;;;;;9.46;100.00;102663.44;5029546;28;20067;-61
2022/10/07 01:49:41;;;;;;;18.55;3.28;;;;;;;9.42;100.00;102653.81;5029563;28;20029;-61
2022/10/07 01:52:15;;;;;;;28.35;3.15;;;;;;;9.40;100.00;102652.91;4996357;28;20030;-61
2022/10/07 01:55:01;;;;;;;17.25;2.92;;;;;;;9.33;100.00;102641.53;5010091;28;20065;-60
2022/10/07 01:57:39;;;;;;;13.45;3.45;;;;;;;9.30;100.00;102642.38;5008131;28;20476;-62
2022/10/07 02:00:10;;;;;;;24.63;3.35;;;;;;;9.30;100.00;102637.13;5010295;28;20081;-61
2022/10/07 02:03:03;;;;;;;16.15;2.80;;;;;;;9.29;100.00;102629.22;5009127;28;20054;-58
2022/10/07 02:05:45;;;;;;;23.23;2.80;;;;;;;9.30;100.00;102626.59;5009238;28;20451;-62
2022/10/07 02:08:41;;;;;;;28.60;2.97;;;;;;;9.38;100.00;102621.34;5008726;28;20038;-60
2022/10/07 02:11:12;;;;;;;24.75;3.58;;;;;;;9.44;100.00;102620.44;5009284;28;20176;-61
2022/10/07 02:13:48;;;;;;;20.60;4.13;;;;;;;9.55;100.00;102612.56;5019735;28;20076;-61
2022/10/07 02:16:48;;;;;;;19.98;3.45;;;;;;;9.64;100.00;102609.94;5021320;28;20041;-62
2022/10/07 02:19:17;;;;;;;17.63;3.40;;;;;;;9.72;100.00;102613.41;5024308;28;20464;-62
2022/10/07 02:21:44;;;;;;;19.15;2.95;;;;;;;9.78;100.00;102603.75;5008810;28;20061;-61
2022/10/07 02:24:11;;;;;;;25.00;3.25;;;;;;;9.79;100.00;102606.38;5010191;28;20030;-61
2022/10/07 02:26:37;;;;;;;19.40;3.40;;;;;;;9.76;100.00;102597.59;5009511;28;20041;-61
2022/10/07 02:29:03;;;;;;;18.08;2.60;;;;;;;9.74;100.00;102597.63;5009354;28;20387;-59
2022/10/07 02:31:30;;;;;;;25.40;3.83;;;;;;;9.78;100.00;102595.88;5008538;28;20552;-61
2022/10/07 02:33:57;;;;;;;24.83;3.53;;;;;;;9.85;100.00;102598.44;5015655;28;20051;-60
2022/10/07 02:36:31;;;;;;;29.05;5.07;;;;;;;9.94;100.00;102586.16;5028553;28;20406;-61
2022/10/07 02:38:59;;;;;;;23.33;3.65;;;;;;;10.01;100.00;102580.00;5015652;28;20488;-61
2022/10/07 02:41:40;;;;;;;29.50;4.35;;;;;;;10.06;100.00;102575.56;5008945;28;20390;-60
2022/10/07 02:44:31;;;;;;;24.00;3.42;;;;;;;10.14;100.00;102564.16;5006953;28;20116;-61
2022/10/07 02:47:24;;;;;;;28.45;3.95;;;;;;;10.17;100.00;102561.50;5030201;28;20083;-59
2022/10/07 02:49:53;;;;;;;18.45;4.30;;;;;;;10.19;100.00;102562.34;5028009;28;20392;-61
2022/10/07 02:52:20;;;;;;;21.85;3.53;;;;;;;10.23;100.00;102553.53;5028420;28;20021;-61
2022/10/07 02:54:55;;;;;;;28.08;3.80;;;;;;;10.25;100.00;102559.69;5009479;28;20030;-60
2022/10/07 02:57:21;;;;;;;21.25;3.95;;;;;;;10.30;100.00;102562.31;5007887;28;20037;-61
2022/10/07 02:59:48;;;;;;;22.80;4.38;;;;;;;10.29;100.00;102556.16;5009137;28;20026;-61
2022/10/07 03:02:22;;;;;;;23.33;4.30;;;;;;;10.30;100.00;102551.78;4991949;28;20075;-63
2022/10/07 03:04:48;;;;;;;25.58;4.30;;;;;;;10.26;100.00;102552.69;5010491;28;20502;-61
2022/10/07 03:07:14;;;;;;;23.88;3.55;;;;;;;10.21;100.00;102553.56;5029254;28;20030;-61
2022/10/07 03:09:40;;;;;;;23.88;3.63;;;;;;;10.21;100.00;102550.91;5027175;28;20028;-61
2022/10/07 03:12:06;;;;;;;24.15;3.70;;;;;;;10.21;100.00;102547.44;5028176;28;20029;-62
2022/10/07 03:14:34;;;;;;;26.75;4.05;;;;;;;10.21;100.00;102547.44;5028514;28;20051;-61
2022/10/07 03:17:00;;;;;;;32.03;4.15;;;;;;;10.22;100.00;102544.78;5023917;28;20029;-61
2022/10/07 03:19:25;;;;;;;34.72;4.13;;;;;;;10.23;100.00;102537.72;5006620;28;20369;-60
2022/10/07 03:21:52;;;;;;;23.25;3.60;;;;;;;10.17;100.00;102535.16;5008684;28;20049;-61
2022/10/07 03:24:17;;;;;;;25.33;3.63;;;;;;;10.18;100.00;102534.28;5008974;28;20022;-60
2022/10/07 03:26:43;;;;;;;27.27;3.95;;;;;;;10.21;100.00;102534.25;5009282;28;20040;-61
2022/10/07 03:29:09;;;;;;;26.58;4.18;;;;;;;10.20;100.00;102537.75;5008598;28;20026;-60
2022/10/07 03:31:35;;;;;;;27.20;3.78;;;;;;;10.20;100.00;102524.56;5008219;28;20053;-60
2022/10/07 03:34:00;;;;;;;25.27;3.95;;;;;;;10.22;100.00;102523.72;5009102;28;20057;-61
2022/10/07 03:36:26;;;;;;;27.35;4.00;;;;;;;10.21;100.00;102527.22;5007526;28;20037;-62
2022/10/07 03:38:51;;;;;;;27.88;4.38;;;;;;;10.14;100.00;102522.00;5008628;28;20037;-61
2022/10/07 03:41:18;;;;;;;22.90;3.65;;;;;;;10.11;100.00;102526.38;5008961;28;20026;-61
2022/10/07 03:43:43;;;;;;;28.77;5.03;;;;;;;10.09;100.00;102528.13;5024691;28;20037;-62
2022/10/07 03:46:08;;;;;;;25.05;3.97;;;;;;;10.10;100.00;102522.00;5028363;28;20021;-63
2022/10/07 03:48:34;;;;;;;17.17;3.53;;;;;;;10.09;100.00;102520.25;5027719;28;20025;-61
2022/10/07 03:50:59;;;;;;;20.38;3.80;;;;;;;10.10;100.00;102518.50;5029068;28;20033;-60
2022/10/07 03:53:26;;;;;;;39.85;4.65;;;;;;;10.11;100.00;102515.84;5028499;28;20108;-62
2022/10/07 03:55:51;;;;;;;20.00;4.10;;;;;;;10.14;100.00;102514.09;5027728;28;20071;-60
2022/10/07 03:58:16;;;;;;;28.52;4.03;;;;;;;10.12;100.00;102516.75;5027952;28;20379;-60
2022/10/07 04:00:42;;;;;;;25.13;4.57;;;;;;;10.11;100.00;102514.97;5012149;28;20053;-61
2022/10/07 04:03:08;;;;;;;26.30;4.53;;;;;;;10.12;100.00;102511.47;5008413;28;20030;-61
2022/10/07 04:05:34;;;;;;;17.90;3.65;;;;;;;10.16;100.00;102502.66;5008578;28;20032;-61
2022/10/07 04:08:00;;;;;;;18.60;3.38;;;;;;;10.16;100.00;102505.28;5007172;28;20033;-61
2022/10/07 04:10:26;;;;;;;25.45;3.85;;;;;;;10.15;100.00;102505.31;5007073;28;20030;-61
2022/10/07 04:12:51;;;;;;;27.85;4.80;;;;;;;10.12;100.00;102506.22;5008158;28;20049;-61
2022/10/07 04:15:17;;;;;;;22.55;4.13;;;;;;;10.09;100.00;102498.31;5006343;28;20073;-62
2022/10/07 04:17:45;;;;;;;21.58;4.00;;;;;;;10.07;100.00;102503.59;5011156;28;20066;-62
2022/10/07 04:20:12;;;;;;;20.17;4.18;;;;;;;10.03;100.00;102495.72;5013403;28;20025;-62
2022/10/07 04:22:37;;;;;;;27.17;3.83;;;;;;;10.01;100.00;102497.47;5015142;28;20120;-63
2022/10/07 04:27:55;;;;;;;25.40;4.53;;;;;;;9.93;100.00;102497.53;5021418;28;20040;-62
2022/10/07 04:30:23;;;;;;;27.02;4.25;;;;;;;9.95;100.00;102494.00;5016004;28;20030;-62
2022/10/07 04:32:49;;;;;;;21.95;4.35;;;;;;;10.00;100.00;102491.34;5027759;28;20037;-62
2022/10/07 04:35:21;;;;;;;23.58;4.05;;;;;;;9.98;100.00;102495.72;5019583;28;20037;-61
2022/10/07 04:37:50;;;;;;;23.98;3.80;;;;;;;10.00;100.00;102486.06;5030508;28;20024;-63
2022/10/07 04:40:16;;;;;;;24.13;3.97;;;;;;;10.00;100.00;102486.06;5027886;28;20057;-60
2022/10/07 04:45:25;;;;;;;19.90;4.28;;;;;;;10.00;100.00;102486.06;5018611;28;20044;-67
2022/10/07 04:47:50;;;;;;;20.92;4.20;;;;;;;10.03;100.00;102488.69;5027392;28;20025;-61
2022/10/07 04:50:16;;;;;;;21.02;3.58;;;;;;;10.01;100.00;102482.53;5032158;28;20113;-59
2022/10/07 04:52:42;;;;;;;22.65;3.80;;;;;;;10.06;100.00;102478.13;5030644;28;20030;-61
2022/10/07 04:55:10;;;;;;;24.42;3.47;;;;;;;10.10;100.00;102484.25;5013385;28;20025;-60
2022/10/07 04:57:35;;;;;;;18.38;3.53;;;;;;;10.07;100.00;102482.53;5014325;28;20083;-63
2022/10/07 05:00:00;;;;;;;21.50;4.05;;;;;;;10.07;100.00;102479.00;5012996;28;20455;-61
2022/10/07 05:02:26;;;;;;;20.60;3.90;;;;;;;10.10;100.00;102474.59;5032068;28;20037;-60
2022/10/07 05:04:52;;;;;;;21.70;3.45;;;;;;;10.13;100.00;102475.44;5033986;28;20013;-60
2022/10/07 05:07:17;;;;;;;22.83;3.55;;;;;;;10.11;100.00;102468.44;5033532;28;20448;-61
2022/10/07 05:09:43;;;;;;;22.20;3.72;;;;;;;10.10;100.00;102461.44;5034545;28;20022;-62
2022/10/07 05:12:08;;;;;;;25.48;3.47;;;;;;;10.09;100.00;102462.28;5033382;28;20022;-61
2022/10/07 05:14:34;;;;;;;19.40;3.97;;;;;;;10.13;100.00;102463.16;5012668;28;20504;-63
2022/10/07 05:16:59;;;;;;;32.10;3.88;;;;;;;10.17;100.00;102461.41;5013383;28;20060;-62
2022/10/07 05:19:24;;;;;;;23.30;3.65;;;;;;;10.21;100.00;102455.22;5012388;28;20121;-62
2022/10/07 05:21:50;;;;;;;19.55;3.63;;;;;;;10.26;100.00;102453.41;5014565;28;20109;-60
2022/10/07 05:24:16;;;;;;;17.90;3.58;;;;;;;10.28;100.00;102451.66;5013807;28;20018;-63
2022/10/07 05:26:41;;;;;;;19.77;3.75;;;;;;;10.32;100.00;102453.38;5012971;28;20034;-62
2022/10/07 05:29:07;;;;;;;21.90;3.50;;;;;;;10.28;100.00;102443.75;5012118;28;20022;-62
2022/10/07 05:31:32;;;;;;;21.13;3.75;;;;;;;10.28;100.00;102449.03;5012959;28;20077;-61
2022/10/07 05:33:58;;;;;;;20.88;3.88;;;;;;;10.34;100.00;102446.34;5010194;28;20029;-61
2022/10/07 05:36:23;;;;;;;22.10;3.78;;;;;;;10.34;100.00;102451.63;5009720;28;20044;-59
2022/10/07 05:38:49;;;;;;;24.65;3.22;;;;;;;10.32;100.00;102445.47;5010779;28;20033;-60
2022/10/07 05:41:35;;;;;;;19.35;3.95;;;;;;;10.37;100.00;102437.53;3957552;22;21951;-64
2022/10/07 05:44:00;;;;;;;21.98;3.33;;;;;;;10.37;100.00;102442.81;5002870;28;20063;-59
2022/10/07 05:46:26;;;;;;;17.02;3.25;;;;;;;10.33;100.00;102438.47;4991368;28;20516;-61
2022/10/07 05:48:52;;;;;;;25.40;4.53;;;;;;;10.40;100.00;102439.28;5010285;28;20558;-62
2022/10/07 05:51:19;;;;;;;15.63;4.38;;;;;;;10.42;100.00;102445.41;5009953;28;20030;-61
2022/10/07 05:53:45;;;;;;;28.08;3.95;;;;;;;10.42;100.00;102437.50;5008981;28;20033;-62
2022/10/07 05:56:14;;;;;;;17.45;3.28;;;;;;;10.43;100.00;102434.88;5027904;28;20029;-61
2022/10/07 05:58:40;;;;;;;15.43;3.95;;;;;;;10.41;100.00;102433.13;5029419;28;20140;-62
2022/10/07 06:01:14;;;;;;;22.17;3.65;;;;;;;10.42;100.00;102432.25;5029269;28;20025;-62
2022/10/07 06:03:41;;;;;;;19.98;4.13;;;;;;;10.41;100.00;102427.88;5030498;28;20048;-61
2022/10/07 06:06:07;;;;;;;18.35;3.60;;;;;;;10.43;100.00;102429.59;5025343;28;20073;-61
2022/10/07 06:08:34;;;;;;;15.75;3.42;;;;;;;10.42;100.00;102427.81;5010058;28;20461;-60
2022/10/07 06:13:48;;;;;;;20.17;3.58;;;;;;;10.51;100.00;102429.56;5004476;28;20040;-63
2022/10/07 06:16:14;;;;;;;17.63;3.22;;;;;;;10.51;100.00;102423.41;5006823;28;20030;-61
2022/10/07 06:18:39;;;;;;;12.77;3.05;;;;;;;10.52;100.00;102433.94;5008958;28;20113;-60
2022/10/07 06:21:05;;;;;;;20.20;3.58;;;;;;;10.50;100.00;102425.16;5009428;28;20595;-60
2022/10/07 06:23:31;;;;;;;19.52;3.92;;;;;;;10.57;100.00;102437.41;5009155;28;20029;-60
2022/10/07 06:26:02;;;;;;;21.50;4.07;;;;;;;10.66;100.00;102435.59;5008195;28;20029;-63
2022/10/07 06:28:38;;;;;;;20.05;4.05;;;;;;;10.70;100.00;102429.41;5007775;28;20037;-61
2022/10/07 06:31:15;;;;;;;20.15;3.70;;;;;;;10.74;100.00;102428.47;5007502;28;20028;-66
2022/10/07 06:33:40;;;;;;;18.75;3.78;;;;;;;10.80;100.00;102432.81;5008629;28;20026;-61
2022/10/07 06:36:09;;;;;;;17.55;3.30;;;;;;;10.80;100.00;102428.44;5009687;28;20064;-62
2022/10/07 06:38:34;;;;;;;20.40;3.27;;;;;;;10.83;100.00;102430.16;5006130;28;20064;-61
2022/10/07 06:41:00;;;;;;;13.50;3.17;;;;;;;10.90;100.00;102431.00;5009292;28;20092;-62
2022/10/07 06:46:47;;;;;;;16.98;3.65;;;;;;;10.97;100.00;102432.69;5036908;28;20375;-62
2022/10/07 06:49:13;;;;;;;13.95;3.75;;;;;;;11.05;100.00;102437.88;5048899;28;20053;-60
2022/10/07 06:51:38;;;;;;;16.75;4.40;;;;;;;11.05;100.00;102436.09;5049118;28;20433;-61
2022/10/07 06:54:03;;;;;;;21.80;3.80;;;;;;;11.11;100.00;102424.63;5047583;28;20020;-60
2022/10/07 06:56:29;;;;;;;20.83;3.78;;;;;;;11.12;100.00;102424.63;5045028;28;20029;-61
2022/10/07 06:58:54;;;;;;;14.77;3.13;;;;;;;11.24;100.00;102430.63;5047277;28;20111;-61
2022/10/07 07:01:19;;;;;;;21.40;4.18;;;;;;;11.27;100.00;102438.53;5046100;28;20122;-60
2022/10/07 07:03:45;;;;;;;14.93;3.53;;;;;;;11.33;100.00;102429.66;5048056;28;20098;-61
2022/10/07 07:06:10;;;;;;;22.15;4.85;;;;;;;11.39;100.00;102442.78;5046911;28;20109;-61
2022/10/07 07:08:37;;;;;;;18.75;3.40;;;;;;;11.44;100.00;102446.22;5047446;28;20498;-60
2022/10/07 07:13:53;;;;;;;21.95;4.00;;;;;;;11.53;100.00;102437.31;5047626;28;20044;-60
2022/10/07 07:16:18;;;;;;;17.48;3.80;;;;;;;11.56;100.00;102436.44;5047664;28;20032;-61
2022/10/07 07:18:43;;;;;;;24.23;4.05;;;;;;;11.56;100.00;102439.06;5045588;28;20029;-59
2022/10/07 07:21:10;;;;;;;20.60;3.92;;;;;;;11.57;100.00;102436.41;5048424;28;20072;-61
2022/10/07 07:23:35;;;;;;;19.20;3.72;;;;;;;11.63;100.00;102438.09;5048796;28;20055;-60
2022/10/07 07:26:00;;;;;;;21.38;3.67;;;;;;;11.70;100.00;102433.59;5042676;28;20367;-61
2022/10/07 07:28:26;;;;;;;17.73;4.00;;;;;;;11.75;100.00;102427.34;5032112;28;20087;-61
2022/10/07 07:30:51;;;;;;;26.10;3.90;;;;;;;11.84;100.00;102431.66;5040541;28;20039;-61
2022/10/07 07:33:16;;;;;;;21.52;3.80;;;;;;;11.91;100.00;102426.28;5048540;28;20028;-61
2022/10/07 07:35:42;;;;;;;23.77;3.38;;;;;;;12.00;100.00;102432.31;5047963;28;20082;-58
2022/10/07 07:38:08;;;;;;;20.20;4.20;;;;;;;12.00;100.00;102427.03;5048562;28;20040;-61
2022/10/07 07:40:38;;;;;;;17.55;4.38;;;;;;;12.04;100.00;102419.94;5038970;28;20033;-61
2022/10/07 07:43:04;;;;;;;21.08;4.40;;;;;;;12.12;100.00;102423.38;5039022;28;20040;-61
2022/10/07 07:45:31;;;;;;;14.27;3.15;;;;;;;12.23;100.00;102423.22;5038850;28;20044;-61
2022/10/07 07:47:57;;;;;;;20.05;3.55;;;;;;;12.30;100.00;102423.97;5037851;28;20036;-61
2022/10/07 07:50:26;;;;;;;21.80;4.53;;;;;;;12.36;100.00;102428.28;5041536;28;20036;-61
2022/10/07 07:52:51;;;;;;;20.25;3.70;;;;;;;12.47;100.00;102414.91;5043264;28;20096;-61
2022/10/07 07:55:17;;;;;;;18.27;3.67;;;;;;;12.61;100.00;102415.53;5039226;28;20031;-60
2022/10/07 07:57:42;;;;;;;17.17;3.45;;;;;;;12.75;100.00;102427.66;5037949;28;20032;-61
2022/10/07 08:00:10;;;;;;;26.38;4.30;;;;;;;12.89;100.00;102412.41;5035582;28;20017;-61
2022/10/07 08:02:35;;;;;;;24.92;4.30;;;;;;;13.02;100.00;102418.34;5046720;28;20479;-59
2022/10/07 08:05:01;;;;;;;17.17;3.60;;;;;;;13.11;100.00;102412.00;5048142;28;20029;-59
2022/10/07 08:07:26;;;;;;;15.95;3.50;;;;;;;13.25;100.00;102421.44;5047556;28;20483;-60
2022/10/07 08:09:51;;;;;;;16.23;3.15;;;;;;;13.36;100.00;102416.81;5043483;28;20034;-60
2022/10/07 08:12:19;;;;;;;19.38;3.15;;;;;;;13.53;100.00;102418.25;5041854;28;20029;-60
2022/10/07 08:14:45;;;;;;;20.58;4.13;;;;;;;13.64;100.00;102404.81;5040954;28;20514;-60
2022/10/07 08:17:10;;;;;;;24.42;3.13;;;;;;;13.66;100.00;102402.97;5037672;28;20064;-60
2022/10/07 08:19:35;;;;;;;13.93;3.58;;;;;;;13.88;99.44;102402.50;5039764;28;20032;-60
2022/10/07 08:22:01;;;;;;;15.73;3.15;;;;;;;14.03;99.27;102402.13;5047636;28;20475;-61
2022/10/07 08:24:26;;;;;;;14.45;3.30;;;;;;;14.17;98.50;102405.38;5047203;28;20040;-60
2022/10/07 08:26:55;;;;;;;21.88;3.40;;;;;;;14.30;97.29;102401.50;5048736;28;20021;-60
2022/10/07 08:29:20;;;;;;;22.63;3.57;;;;;;;14.49;96.80;102406.34;5046751;28;20036;-60
2022/10/07 08:31:47;;;;;;;17.80;3.10;;;;;;;14.37;96.88;102387.22;5048716;28;20279;-61
2022/10/07 08:34:12;;;;;;;21.40;3.42;;;;;;;14.48;96.50;102397.53;5047737;28;20025;-61
2022/10/07 08:36:39;;;;;;;17.17;3.72;;;;;;;14.45;96.31;102391.44;5048737;28;20029;-61
2022/10/07 08:39:05;;;;;;;19.90;3.78;;;;;;;14.34;97.79;102395.22;5048427;28;20063;-61
2022/10/07 08:41:34;;;;;;;23.35;3.63;;;;;;;14.45;96.61;102399.41;5048273;28;20033;-61
2022/10/07 08:44:18;;;;;;;18.10;3.17;;;;;;;14.53;96.68;102397.41;5046855;28;20037;-61
2022/10/07 08:47:05;;;;;;;15.35;3.45;;;;;;;14.63;95.87;102390.09;5064296;28;20120;-61
2022/10/07 08:50:11;;;;;;;19.80;4.18;;;;;;;14.78;95.75;102387.06;5047633;28;20501;-60
2022/10/07 08:52:36;;;;;;;18.30;3.13;;;;;;;14.78;95.41;102386.19;5032651;28;20041;-63
2022/10/07 08:55:08;;;;;;;23.02;3.35;;;;;;;14.74;95.88;102381.84;5047349;28;20124;-60
2022/10/07 08:57:46;;;;;;;23.50;3.80;;;;;;;14.80;95.68;102376.41;5062927;28;20063;-60
2022/10/07 09:00:16;;;;;;;15.50;3.70;;;;;;;14.87;95.49;102372.66;5047126;28;20487;-62
2022/10/07 09:03:04;;;;;;;17.35;3.58;;;;;;;14.82;95.94;102374.59;5047408;28;20501;-60
2022/10/07 09:05:37;;;;;;;18.60;4.25;;;;;;;14.78;95.07;102362.31;5047902;28;20471;-61
2022/10/07 09:08:09;;;;;;;20.75;3.78;;;;;;;14.82;95.59;102363.97;5049605;28;20047;-61
2022/10/07 09:10:48;;;;;;;14.40;2.95;;;;;;;14.91;95.64;102368.16;5050063;28;20085;-61
2022/10/07 09:13:33;;;;;;;15.33;3.67;;;;;;;14.86;95.68;102370.03;5041182;28;20018;-60
2022/10/07 09:16:06;;;;;;;14.10;3.30;;;;;;;15.04;94.99;102368.66;5048852;28;20068;-61
2022/10/07 09:18:38;;;;;;;29.30;4.25;;;;;;;14.89;95.35;102373.50;5051341;28;20021;-61
2022/10/07 09:21:08;;;;;;;15.45;3.42;;;;;;;15.17;94.35;102374.47;5048506;28;20060;-61
2022/10/07 09:23:35;;;;;;;14.48;2.92;;;;;;;15.20;94.31;102368.25;5050698;28;20025;-61
2022/10/07 09:26:01;;;;;;;17.25;3.58;;;;;;;15.38;93.81;102362.38;5050834;28;20055;-61
2022/10/07 09:28:28;;;;;;;21.17;3.95;;;;;;;15.47;93.17;102365.69;5051773;28;20078;-61
2022/10/07 09:30:55;;;;;;;14.52;2.88;;;;;;;15.54;93.19;102365.41;5049211;28;20036;-60
2022/10/07 09:33:22;;;;;;;11.98;3.50;;;;;;;15.61;93.00;102359.94;5050850;28;20087;-65
2022/10/07 09:35:53;;;;;;;23.17;3.72;;;;;;;15.79;92.66;102363.81;5051155;28;20543;-62
2022/10/07 09:38:38;;;;;;;15.18;3.28;;;;;;;16.08;91.28;102362.03;5049764;28;20195;-60
2022/10/07 09:41:16;;;;;;;13.35;3.30;;;;;;;16.40;89.52;102357.41;5049830;28;20017;-62
2022/10/07 09:44:01;;;;;;;14.18;3.20;;;;;;;16.49;88.15;102358.88;5049494;28;20032;-60
2022/10/07 09:46:47;;;;;;;19.17;3.22;;;;;;;16.52;88.74;102352.56;5050291;28;20371;-60
2022/10/07 09:49:27;;;;;;;14.23;3.25;;;;;;;16.61;88.86;102352.25;5048950;28;20079;-61
2022/10/07 09:52:14;;;;;;;14.98;3.20;;;;;;;16.77;87.88;102343.75;5050928;28;20112;-61
2022/10/07 09:54:41;;;;;;;15.88;3.40;;;;;;;17.03;86.78;102340.09;5050344;28;20033;-60
2022/10/07 09:57:21;;;;;;;20.88;3.97;;;;;;;16.98;87.57;102333.22;5048784;28;20083;-62
2022/10/07 09:59:47;;;;;;;19.60;3.85;;;;;;;17.08;86.95;102331.97;5050784;28;20028;-61
2022/10/07 10:02:12;;;;;;;21.63;3.33;;;;;;;17.32;85.75;102331.97;5050065;28;20103;-60
2022/10/07 10:04:45;;;;;;;13.90;2.97;;;;;;;17.29;86.15;102318.75;5050685;28;20048;-60
2022/10/07 10:07:20;;;;;;;17.92;3.33;;;;;;;17.20;86.22;102316.44;5049200;28;20025;-59
2022/10/07 10:09:50;;;;;;;19.60;3.50;;;;;;;17.30;85.80;102309.84;5051008;28;20032;-60
2022/10/07 10:12:17;;;;;;;23.27;3.70;;;;;;;17.36;85.30;102309.59;5049156;28;20032;-61
2022/10/07 10:15:03;;;;;;;17.48;3.08;;;;;;;17.42;85.29;102316.47;5048977;28;20036;-60
2022/10/07 10:17:34;;;;;;;15.80;2.95;;;;;;;17.18;85.96;102306.72;5048106;28;20109;-61
2022/10/07 10:20:27;;;;;;;20.92;3.42;;;;;;;17.26;85.11;102300.22;5049086;28;20505;-64
2022/10/07 10:22:53;;;;;;;16.23;3.38;;;;;;;17.21;84.79;102296.88;5050494;28;20472;-62
2022/10/07 10:28:49;;;;;;;13.23;3.10;;;;;;;17.22;85.15;102293.28;5063755;28;20060;-60
2022/10/07 10:31:28;;;;;;;16.17;3.03;;;;;;;17.40;84.09;102284.56;5049704;28;20041;-62
2022/10/07 10:33:57;;;;;;;;;;;;;;;17.46;84.01;102282.59;5048880;28;20825;-61
2022/10/07 10:36:22;;;;;;;;;;;;;;;17.37;84.93;102290.00;5048883;28;20351;-61
2022/10/07 10:39:00;;;;;;;19.25;2.88;;;;;;;17.18;84.56;102279.22;5049323;28;19956;-65
2022/10/07 10:41:40;;;;;;;12.55;3.38;;;;;;;17.14;85.88;102286.47;5049313;28;20025;-60
2022/10/07 10:44:45;;;;;;;11.30;2.58;;;;;;;17.55;84.16;102282.22;5047211;28;20494;-63
2022/10/07 10:47:25;;;;;;;13.48;2.95;;;;;;;17.73;83.25;102274.41;5027007;28;20056;-61
2022/10/07 10:50:16;;;;;;;12.80;3.22;;;;;;;17.72;83.14;102267.31;5049018;28;20166;-60
2022/10/07 10:52:56;;;;;;;11.90;2.63;;;;;;;17.70;82.17;102272.72;5049265;28;20362;-61
2022/10/07 10:55:35;;;;;;;14.40;2.72;;;;;;;17.35;83.66;102267.91;5064714;28;20108;-61
2022/10/07 10:58:06;;;;;;;;;;;;;;;17.64;82.46;102263.19;5065758;28;20021;-62
2022/10/07 11:00:45;;;;;;;15.38;2.50;;;;;;;17.68;82.47;102259.47;5048546;28;19938;-62
2022/10/07 11:03:15;;;;;;;;;;;;;;;17.90;81.64;102257.69;5049662;28;20036;-63
2022/10/07 11:05:41;;;;;;;13.35;2.30;;;;;;;18.00;81.26;102255.50;5048319;28;19913;-61
2022/10/07 11:08:11;;;;;;;14.48;2.92;;;;;;;18.26;80.48;102248.19;5064104;28;20112;-61
2022/10/07 11:10:49;;;;;;;16.25;3.30;;;;;;;18.51;79.45;102250.63;5031713;28;20022;-62
2022/10/07 11:14:02;;;;;;;13.98;3.35;;;;;;;18.49;78.49;102243.63;5047830;28;20029;-61
2022/10/07 11:16:35;;;;;;;10.55;2.55;;;;;;;18.51;78.88;102239.94;5036229;28;20037;-61
2022/10/07 11:19:06;;;;;;;12.63;2.90;;;;;;;18.43;78.52;102234.94;5068155;28;20052;-63
2022/10/07 11:21:43;;;;;;;17.73;2.80;;;;;;;18.53;79.16;102245.22;5067661;28;20467;-61
2022/10/07 11:24:38;;;;;;;19.50;3.15;;;;;;;18.51;78.80;102239.94;5067724;28;20024;-62
2022/10/07 11:27:16;;;;;;;11.38;2.42;;;;;;;18.65;78.33;102236.66;5050400;28;20133;-62
2022/10/07 11:30:20;;;;;;;17.50;2.75;;;;;;;18.67;77.41;102234.75;5047187;28;20037;-63
2022/10/07 11:33:05;;;;;;;12.93;2.65;;;;;;;18.56;77.72;102231.72;5048248;28;20055;-64
2022/10/07 11:35:52;;;;;;;13.95;2.83;;;;;;;18.47;78.34;102233.03;5047491;28;20040;-62
2022/10/07 11:38:24;;;;;;;9.90;2.53;;;;;;;18.51;78.43;102223.94;5047674;28;20436;-62
2022/10/07 11:40:52;;;;;;;16.75;2.92;;;;;;;18.41;78.18;102220.84;5047425;28;20029;-61
2022/10/07 11:43:35;;;;;;;14.05;3.33;;;;;;;18.41;78.19;102215.50;5046701;28;20395;-62
2022/10/07 11:46:05;;;;;;;13.65;2.47;;;;;;;18.09;80.20;102219.56;5028453;28;20060;-61